sensor_id;sensor_type;location;lat;lon;timestamp;pressure;altitude;pressure_sealevel;temperature;humidity
19520;BME280;9904;52.246;20.898;2023-09-19T00:00:47;99527.06;;;18.81;81.41
19520;BME280;9904;52.246;20.898;2023-09-19T00:03:15;99527.13;;;18.75;81.59
19520;BME280;9904;52.246;20.898;2023-09-19T00:05:42;99521.66;;;18.75;81.79
19520;BME280;9904;52.246;20.898;2023-09-19T00:08:13;99523.38;;;18.69;81.89
19520;BME280;9904;52.246;20.898;2023-09-19T00:10:43;99517.53;;;18.59;82.82
19520;BME280;9904;52.246;20.898;2023-09-19T00:13:10;99520.88;;;18.67;82.21
19520;BME280;9904;52.246;20.898;2023-09-19T00:15:46;99522.88;;;18.79;81.46
19520;BME280;9904;52.246;20.898;2023-09-19T00:18:20;99525.81;;;18.84;81.35
19520;BME280;9904;52.246;20.898;2023-09-19T00:21:00;99525.84;;;18.77;81.37
19520;BME280;9904;52.246;20.898;2023-09-19T00:23:27;99518.06;;;18.74;81.82
19520;BME280;9904;52.246;20.898;2023-09-19T00:25:58;99518.56;;;18.64;82.12
19520;BME280;9904;52.246;20.898;2023-09-19T00:28:25;99521.69;;;18.68;81.85
19520;BME280;9904;52.246;20.898;2023-09-19T00:30:52;99516.59;;;18.72;81.67
19520;BME280;9904;52.246;20.898;2023-09-19T00:33:24;99520.13;;;18.53;82.57
19520;BME280;9904;52.246;20.898;2023-09-19T00:35:52;99520.13;;;18.53;82.52
19520;BME280;9904;52.246;20.898;2023-09-19T00:38:20;99508.22;;;18.41;83.29
19520;BME280;9904;52.246;20.898;2023-09-19T00:40:50;99521.69;;;18.43;83.18
19520;BME280;9904;52.246;20.898;2023-09-19T00:43:20;99510.72;;;18.43;83.09
19520;BME280;9904;52.246;20.898;2023-09-19T00:45:49;99511.47;;;18.25;84.36
19520;BME280;9904;52.246;20.898;2023-09-19T00:48:18;99509.13;;;18.28;84.00
19520;BME280;9904;52.246;20.898;2023-09-19T00:50:46;99517.47;;;18.40;83.65
19520;BME280;9904;52.246;20.898;2023-09-19T00:53:18;99505.06;;;18.37;83.35
19520;BME280;9904;52.246;20.898;2023-09-19T00:55:46;99507.75;;;18.44;83.31
19520;BME280;9904;52.246;20.898;2023-09-19T00:58:17;99502.25;;;18.44;82.86
19520;BME280;9904;52.246;20.898;2023-09-19T01:00:45;99500.34;;;18.19;84.28
19520;BME280;9904;52.246;20.898;2023-09-19T01:03:12;99497.41;;;18.14;84.68
19520;BME280;9904;52.246;20.898;2023-09-19T01:05:43;99499.72;;;18.17;84.47
19520;BME280;9904;52.246;20.898;2023-09-19T01:08:10;99492.16;;;18.13;84.57
19520;BME280;9904;52.246;20.898;2023-09-19T01:10:46;99496.75;;;18.19;84.53
19520;BME280;9904;52.246;20.898;2023-09-19T01:14:01;99487.25;;;18.21;84.39
19520;BME280;9904;52.246;20.898;2023-09-19T01:30:32;99463.56;;;18.09;84.67
19520;BME280;9904;52.246;20.898;2023-09-19T01:33:02;99473.63;;;18.15;84.73
19520;BME280;9904;52.246;20.898;2023-09-19T01:35:30;99469.84;;;18.09;84.93
19520;BME280;9904;52.246;20.898;2023-09-19T01:37:57;99468.13;;;18.15;84.50
19520;BME280;9904;52.246;20.898;2023-09-19T01:40:23;99459.91;;;18.15;84.61
19520;BME280;9904;52.246;20.898;2023-09-19T01:42:58;99457.69;;;18.05;85.35
19520;BME280;9904;52.246;20.898;2023-09-19T01:45:34;99454.31;;;18.03;85.40
19520;BME280;9904;52.246;20.898;2023-09-19T01:48:20;99461.41;;;18.11;85.08
19520;BME280;9904;52.246;20.898;2023-09-19T01:50:59;99445.63;;;18.06;85.21
19520;BME280;9904;52.246;20.898;2023-09-19T01:53:38;99447.31;;;18.07;84.85
19520;BME280;9904;52.246;20.898;2023-09-19T01:56:12;99439.34;;;18.05;85.14
19520;BME280;9904;52.246;20.898;2023-09-19T01:58:46;99441.44;;;18.03;84.98
19520;BME280;9904;52.246;20.898;2023-09-19T02:01:24;99442.34;;;17.97;85.34
19520;BME280;9904;52.246;20.898;2023-09-19T02:03:53;99442.91;;;18.06;84.80
19520;BME280;9904;52.246;20.898;2023-09-19T02:06:20;99436.09;;;18.15;84.22
19520;BME280;9904;52.246;20.898;2023-09-19T02:08:48;99439.00;;;18.20;84.00
19520;BME280;9904;52.246;20.898;2023-09-19T02:11:15;99435.06;;;18.10;84.64
19520;BME280;9904;52.246;20.898;2023-09-19T02:13:43;99445.25;;;18.02;85.12
19520;BME280;9904;52.246;20.898;2023-09-19T02:16:10;99438.84;;;18.15;84.30
19520;BME280;9904;52.246;20.898;2023-09-19T02:18:38;99439.72;;;18.09;84.45
19520;BME280;9904;52.246;20.898;2023-09-19T02:21:05;99440.00;;;18.01;84.93
19520;BME280;9904;52.246;20.898;2023-09-19T02:23:38;99432.84;;;18.00;84.86
19520;BME280;9904;52.246;20.898;2023-09-19T02:26:06;99428.44;;;17.92;85.36
19520;BME280;9904;52.246;20.898;2023-09-19T02:28:32;99424.25;;;17.89;85.43
19520;BME280;9904;52.246;20.898;2023-09-19T02:31:00;99422.75;;;17.94;85.22
19520;BME280;9904;52.246;20.898;2023-09-19T02:33:28;99424.16;;;17.71;86.66
19520;BME280;9904;52.246;20.898;2023-09-19T02:35:59;99417.84;;;17.70;86.92
19520;BME280;9904;52.246;20.898;2023-09-19T02:38:27;99402.34;;;17.89;85.57
19520;BME280;9904;52.246;20.898;2023-09-19T02:40:53;99417.34;;;17.80;85.79
19520;BME280;9904;52.246;20.898;2023-09-19T02:43:22;99421.56;;;17.76;86.30
19520;BME280;9904;52.246;20.898;2023-09-19T02:45:49;99416.47;;;17.86;85.51
19520;BME280;9904;52.246;20.898;2023-09-19T02:48:17;99412.31;;;17.77;85.80
19520;BME280;9904;52.246;20.898;2023-09-19T02:50:49;99415.31;;;17.69;86.86
19520;BME280;9904;52.246;20.898;2023-09-19T02:53:15;99416.72;;;17.78;85.96
19520;BME280;9904;52.246;20.898;2023-09-19T02:55:43;99410.75;;;17.88;85.43
19520;BME280;9904;52.246;20.898;2023-09-19T02:58:10;99403.94;;;17.72;86.06
19520;BME280;9904;52.246;20.898;2023-09-19T03:00:42;99406.00;;;17.77;86.07
19520;BME280;9904;52.246;20.898;2023-09-19T03:03:09;99395.97;;;17.64;86.95
19520;BME280;9904;52.246;20.898;2023-09-19T03:05:36;99404.75;;;17.72;86.38
19520;BME280;9904;52.246;20.898;2023-09-19T03:08:04;99395.59;;;17.53;87.29
19520;BME280;9904;52.246;20.898;2023-09-19T03:10:31;99388.88;;;17.56;87.10
19520;BME280;9904;52.246;20.898;2023-09-19T03:12:58;99392.25;;;17.51;87.23
19520;BME280;9904;52.246;20.898;2023-09-19T03:15:26;99390.59;;;17.50;87.20
19520;BME280;9904;52.246;20.898;2023-09-19T03:17:53;99391.56;;;17.63;86.61
19520;BME280;9904;52.246;20.898;2023-09-19T03:20:20;99392.75;;;17.73;86.17
19520;BME280;9904;52.246;20.898;2023-09-19T03:22:48;99395.34;;;17.62;86.65
19520;BME280;9904;52.246;20.898;2023-09-19T03:25:15;99390.94;;;17.61;86.36
19520;BME280;9904;52.246;20.898;2023-09-19T03:27:43;99388.19;;;17.61;86.65
19520;BME280;9904;52.246;20.898;2023-09-19T03:30:10;99391.19;;;17.52;86.97
19520;BME280;9904;52.246;20.898;2023-09-19T03:32:46;99384.66;;;17.53;87.12
19520;BME280;9904;52.246;20.898;2023-09-19T03:35:17;99386.72;;;17.65;86.50
19520;BME280;9904;52.246;20.898;2023-09-19T03:37:44;99387.59;;;17.58;86.45
19520;BME280;9904;52.246;20.898;2023-09-19T03:40:11;99383.91;;;17.39;87.71
19520;BME280;9904;52.246;20.898;2023-09-19T03:42:39;99369.34;;;17.46;87.42
19520;BME280;9904;52.246;20.898;2023-09-19T03:45:09;99368.31;;;17.40;87.28
19520;BME280;9904;52.246;20.898;2023-09-19T03:47:39;99372.56;;;17.36;87.95
19520;BME280;9904;52.246;20.898;2023-09-19T03:50:07;99382.97;;;17.52;87.33
19520;BME280;9904;52.246;20.898;2023-09-19T03:52:37;99382.13;;;17.58;86.67
19520;BME280;9904;52.246;20.898;2023-09-19T03:55:04;99375.19;;;17.56;86.87
19520;BME280;9904;52.246;20.898;2023-09-19T03:57:31;99376.00;;;17.63;86.63
19520;BME280;9904;52.246;20.898;2023-09-19T03:59:58;99375.53;;;17.66;86.54
19520;BME280;9904;52.246;20.898;2023-09-19T04:02:25;99365.69;;;17.58;86.27
19520;BME280;9904;52.246;20.898;2023-09-19T04:04:52;99365.31;;;17.55;86.62
19520;BME280;9904;52.246;20.898;2023-09-19T04:07:19;99367.81;;;17.56;86.85
19520;BME280;9904;52.246;20.898;2023-09-19T04:09:49;99346.81;;;17.50;86.98
19520;BME280;9904;52.246;20.898;2023-09-19T04:12:15;99360.88;;;17.54;87.06
19520;BME280;9904;52.246;20.898;2023-09-19T04:14:43;99356.38;;;17.66;86.27
19520;BME280;9904;52.246;20.898;2023-09-19T04:17:10;99351.13;;;17.65;86.17
19520;BME280;9904;52.246;20.898;2023-09-19T04:19:37;99350.97;;;17.60;86.29
19520;BME280;9904;52.246;20.898;2023-09-19T04:22:04;99353.34;;;17.49;87.08
19520;BME280;9904;52.246;20.898;2023-09-19T04:24:31;99354.78;;;17.52;87.10
19520;BME280;9904;52.246;20.898;2023-09-19T04:26:58;99342.63;;;17.48;87.18
19520;BME280;9904;52.246;20.898;2023-09-19T04:29:28;99346.72;;;17.64;86.09
19520;BME280;9904;52.246;20.898;2023-09-19T04:31:56;99342.28;;;17.63;86.47
19520;BME280;9904;52.246;20.898;2023-09-19T04:34:26;99340.50;;;17.75;85.73
19520;BME280;9904;52.246;20.898;2023-09-19T04:36:54;99337.47;;;17.58;86.45
19520;BME280;9904;52.246;20.898;2023-09-19T04:39:23;99337.13;;;17.48;87.22
19520;BME280;9904;52.246;20.898;2023-09-19T04:41:52;99335.47;;;17.47;87.12
19520;BME280;9904;52.246;20.898;2023-09-19T04:44:19;99341.53;;;17.49;87.37
19520;BME280;9904;52.246;20.898;2023-09-19T04:46:46;99328.59;;;17.63;86.45
19520;BME280;9904;52.246;20.898;2023-09-19T04:49:13;99335.75;;;17.64;86.40
19520;BME280;9904;52.246;20.898;2023-09-19T04:51:40;99337.47;;;17.58;86.55
19520;BME280;9904;52.246;20.898;2023-09-19T04:54:07;99335.63;;;17.52;86.95
19520;BME280;9904;52.246;20.898;2023-09-19T04:56:34;99337.63;;;17.70;86.08
19520;BME280;9904;52.246;20.898;2023-09-19T04:59:00;99338.25;;;17.72;86.06
19520;BME280;9904;52.246;20.898;2023-09-19T05:01:27;99338.00;;;17.73;85.94
19520;BME280;9904;52.246;20.898;2023-09-19T05:03:54;99330.78;;;17.86;85.48
19520;BME280;9904;52.246;20.898;2023-09-19T05:06:21;99339.66;;;17.81;85.38
19520;BME280;9904;52.246;20.898;2023-09-19T05:08:49;99337.03;;;17.93;85.21
19520;BME280;9904;52.246;20.898;2023-09-19T05:11:19;99336.47;;;18.10;84.17
19520;BME280;9904;52.246;20.898;2023-09-19T05:13:48;99336.28;;;18.11;83.85
19520;BME280;9904;52.246;20.898;2023-09-19T05:16:19;99332.69;;;18.11;83.79
19520;BME280;9904;52.246;20.898;2023-09-19T05:18:46;99330.84;;;18.04;83.81
19520;BME280;9904;52.246;20.898;2023-09-19T05:21:13;99333.75;;;18.10;83.79
19520;BME280;9904;52.246;20.898;2023-09-19T05:23:40;99333.44;;;17.99;84.28
19520;BME280;9904;52.246;20.898;2023-09-19T05:26:08;99331.91;;;18.03;84.22
19520;BME280;9904;52.246;20.898;2023-09-19T05:28:34;99317.78;;;18.07;83.93
19520;BME280;9904;52.246;20.898;2023-09-19T05:31:01;99330.13;;;18.16;83.70
19520;BME280;9904;52.246;20.898;2023-09-19T05:33:31;99330.72;;;18.18;83.44
19520;BME280;9904;52.246;20.898;2023-09-19T05:35:58;99327.59;;;18.14;83.37
19520;BME280;9904;52.246;20.898;2023-09-19T05:38:25;99328.22;;;18.16;83.45
19520;BME280;9904;52.246;20.898;2023-09-19T05:40:53;99331.72;;;18.24;82.95
19520;BME280;9904;52.246;20.898;2023-09-19T05:43:20;99333.28;;;18.38;82.25
19520;BME280;9904;52.246;20.898;2023-09-19T05:45:47;99333.44;;;18.43;82.08
19520;BME280;9904;52.246;20.898;2023-09-19T05:48:15;99327.75;;;18.45;81.50
19520;BME280;9904;52.246;20.898;2023-09-19T05:50:43;99322.25;;;18.45;81.67
19520;BME280;9904;52.246;20.898;2023-09-19T05:53:13;99338.91;;;18.43;82.14
19520;BME280;9904;52.246;20.898;2023-09-19T05:55:42;99325.31;;;18.74;80.58
19520;BME280;9904;52.246;20.898;2023-09-19T05:58:08;99347.19;;;18.99;79.63
19520;BME280;9904;52.246;20.898;2023-09-19T06:00:36;99352.25;;;19.02;79.30
19520;BME280;9904;52.246;20.898;2023-09-19T06:03:05;99348.56;;;19.08;79.31
19520;BME280;9904;52.246;20.898;2023-09-19T06:05:32;99359.69;;;19.13;78.90
19520;BME280;9904;52.246;20.898;2023-09-19T06:07:59;99350.38;;;19.33;77.79
19520;BME280;9904;52.246;20.898;2023-09-19T06:10:35;99359.38;;;19.22;78.38
19520;BME280;9904;52.246;20.898;2023-09-19T06:13:05;99344.75;;;19.09;79.72
19520;BME280;9904;52.246;20.898;2023-09-19T06:15:32;99349.66;;;19.38;78.11
19520;BME280;9904;52.246;20.898;2023-09-19T06:17:59;99359.81;;;19.37;77.53
19520;BME280;9904;52.246;20.898;2023-09-19T06:20:28;99352.75;;;19.41;77.23
19520;BME280;9904;52.246;20.898;2023-09-19T06:22:56;99357.06;;;19.37;77.16
19520;BME280;9904;52.246;20.898;2023-09-19T06:25:22;99357.84;;;19.56;77.19
19520;BME280;9904;52.246;20.898;2023-09-19T06:27:51;99358.47;;;19.58;77.08
19520;BME280;9904;52.246;20.898;2023-09-19T06:30:23;99358.00;;;19.73;76.21
19520;BME280;9904;52.246;20.898;2023-09-19T06:32:58;99355.34;;;19.97;75.02
19520;BME280;9904;52.246;20.898;2023-09-19T06:35:25;99361.56;;;20.04;74.90
19520;BME280;9904;52.246;20.898;2023-09-19T06:40:19;99360.66;;;20.34;73.57
19520;BME280;9904;52.246;20.898;2023-09-19T06:42:47;99356.69;;;20.66;72.52
19520;BME280;9904;52.246;20.898;2023-09-19T06:45:17;99358.97;;;20.93;70.88
19520;BME280;9904;52.246;20.898;2023-09-19T06:47:49;99362.75;;;21.15;69.82
19520;BME280;9904;52.246;20.898;2023-09-19T06:50:17;99366.78;;;21.25;70.13
19520;BME280;9904;52.246;20.898;2023-09-19T06:52:46;99365.13;;;21.52;68.13
19520;BME280;9904;52.246;20.898;2023-09-19T06:55:17;99371.16;;;21.37;68.23
19520;BME280;9904;52.246;20.898;2023-09-19T06:57:47;99366.75;;;20.72;70.78
19520;BME280;9904;52.246;20.898;2023-09-19T07:00:15;99370.72;;;20.76;71.06
19520;BME280;9904;52.246;20.898;2023-09-19T07:05:22;99376.53;;;21.03;69.42
19520;BME280;9904;52.246;20.898;2023-09-19T07:07:48;99374.22;;;21.12;69.83
19520;BME280;9904;52.246;20.898;2023-09-19T07:10:15;99366.53;;;21.26;68.71
19520;BME280;9904;52.246;20.898;2023-09-19T07:12:42;99379.56;;;21.31;68.43
19520;BME280;9904;52.246;20.898;2023-09-19T07:15:09;99377.41;;;21.33;69.48
19520;BME280;9904;52.246;20.898;2023-09-19T07:17:36;99385.03;;;21.02;70.22
19520;BME280;9904;52.246;20.898;2023-09-19T07:20:03;99383.09;;;21.14;70.64
19520;BME280;9904;52.246;20.898;2023-09-19T07:22:34;99389.91;;;21.12;69.78
19520;BME280;9904;52.246;20.898;2023-09-19T07:25:01;99393.66;;;21.75;68.00
19520;BME280;9904;52.246;20.898;2023-09-19T07:27:28;99394.16;;;21.72;67.83
19520;BME280;9904;52.246;20.898;2023-09-19T07:29:55;99391.31;;;21.67;67.49
19520;BME280;9904;52.246;20.898;2023-09-19T07:32:21;99386.03;;;22.11;66.60
19520;BME280;9904;52.246;20.898;2023-09-19T07:34:48;99395.16;;;22.12;65.96
19520;BME280;9904;52.246;20.898;2023-09-19T07:37:15;99393.97;;;22.08;66.70
19520;BME280;9904;52.246;20.898;2023-09-19T07:39:43;99405.50;;;22.05;66.65
19520;BME280;9904;52.246;20.898;2023-09-19T07:42:11;99407.69;;;21.74;66.97
19520;BME280;9904;52.246;20.898;2023-09-19T07:44:44;99411.91;;;21.24;69.12
19520;BME280;9904;52.246;20.898;2023-09-19T07:47:14;99414.59;;;21.07;69.77
19520;BME280;9904;52.246;20.898;2023-09-19T07:49:41;99424.09;;;21.16;69.99
19520;BME280;9904;52.246;20.898;2023-09-19T07:52:09;99430.25;;;20.94;71.03
19520;BME280;9904;52.246;20.898;2023-09-19T07:54:36;99428.00;;;20.91;70.97
19520;BME280;9904;52.246;20.898;2023-09-19T07:57:05;99415.31;;;20.78;71.70
19520;BME280;9904;52.246;20.898;2023-09-19T07:59:31;99421.06;;;20.77;72.48
19520;BME280;9904;52.246;20.898;2023-09-19T08:01:58;99407.41;;;21.05;71.01
19520;BME280;9904;52.246;20.898;2023-09-19T08:04:25;99416.75;;;21.45;69.63
19520;BME280;9904;52.246;20.898;2023-09-19T08:06:52;99418.97;;;21.08;71.09
19520;BME280;9904;52.246;20.898;2023-09-19T08:09:19;99428.72;;;21.51;70.10
19520;BME280;9904;52.246;20.898;2023-09-19T08:11:51;99423.88;;;21.29;70.21
19520;BME280;9904;52.246;20.898;2023-09-19T08:14:17;99430.47;;;21.16;71.24
19520;BME280;9904;52.246;20.898;2023-09-19T08:16:44;99446.38;;;21.02;71.57
19520;BME280;9904;52.246;20.898;2023-09-19T08:19:11;99443.88;;;20.65;73.00
19520;BME280;9904;52.246;20.898;2023-09-19T08:21:38;99452.13;;;21.13;71.38
19520;BME280;9904;52.246;20.898;2023-09-19T08:24:05;99456.09;;;20.93;72.51
19520;BME280;9904;52.246;20.898;2023-09-19T08:26:32;99454.16;;;21.29;71.20
19520;BME280;9904;52.246;20.898;2023-09-19T08:28:59;99456.47;;;21.49;70.59
19520;BME280;9904;52.246;20.898;2023-09-19T08:31:32;99456.66;;;21.31;71.13
19520;BME280;9904;52.246;20.898;2023-09-19T08:34:00;99460.09;;;21.38;71.00
19520;BME280;9904;52.246;20.898;2023-09-19T08:36:27;99462.06;;;21.02;72.58
19520;BME280;9904;52.246;20.898;2023-09-19T08:38:53;99463.41;;;20.87;72.65
19520;BME280;9904;52.246;20.898;2023-09-19T08:41:20;99449.75;;;21.04;72.24
19520;BME280;9904;52.246;20.898;2023-09-19T08:43:47;99450.81;;;20.80;73.22
19520;BME280;9904;52.246;20.898;2023-09-19T08:46:15;99451.00;;;20.42;75.29
19520;BME280;9904;52.246;20.898;2023-09-19T08:49:04;99444.41;;;20.32;75.66
19520;BME280;9904;52.246;20.898;2023-09-19T08:51:43;99440.91;;;20.13;77.27
19520;BME280;9904;52.246;20.898;2023-09-19T08:54:22;99448.94;;;20.26;76.78
19520;BME280;9904;52.246;20.898;2023-09-19T08:56:54;99449.47;;;20.47;76.50
19520;BME280;9904;52.246;20.898;2023-09-19T08:59:24;99445.06;;;20.69;74.61
19520;BME280;9904;52.246;20.898;2023-09-19T09:01:53;99449.91;;;20.32;76.60
19520;BME280;9904;52.246;20.898;2023-09-19T09:04:22;99444.91;;;20.40;76.16
19520;BME280;9904;52.246;20.898;2023-09-19T09:06:50;99440.50;;;20.51;76.34
19520;BME280;9904;52.246;20.898;2023-09-19T09:09:20;99445.88;;;20.46;75.72
19520;BME280;9904;52.246;20.898;2023-09-19T09:11:48;99459.69;;;19.85;79.21
19520;BME280;9904;52.246;20.898;2023-09-19T09:14:18;99458.25;;;19.64;81.53
19520;BME280;9904;52.246;20.898;2023-09-19T09:16:46;99457.44;;;19.94;81.03
19520;BME280;9904;52.246;20.898;2023-09-19T09:19:14;99473.34;;;19.92;81.25
19520;BME280;9904;52.246;20.898;2023-09-19T09:21:47;99483.44;;;19.42;84.76
19520;BME280;9904;52.246;20.898;2023-09-19T09:24:56;99501.88;;;19.35;85.92
19520;BME280;9904;52.246;20.898;2023-09-19T09:27:31;99510.84;;;18.80;91.45
19520;BME280;9904;52.246;20.898;2023-09-19T09:30:00;99495.56;;;18.65;93.30
19520;BME280;9904;52.246;20.898;2023-09-19T09:32:29;99490.47;;;18.69;93.94
19520;BME280;9904;52.246;20.898;2023-09-19T09:34:57;99489.41;;;18.45;95.34
19520;BME280;9904;52.246;20.898;2023-09-19T09:37:28;99492.69;;;18.28;96.92
19520;BME280;9904;52.246;20.898;2023-09-19T09:39:59;99502.84;;;18.21;98.18
19520;BME280;9904;52.246;20.898;2023-09-19T09:42:45;99511.25;;;17.81;100.00
19520;BME280;9904;52.246;20.898;2023-09-19T09:45:23;99510.84;;;17.84;100.00
19520;BME280;9904;52.246;20.898;2023-09-19T09:48:00;99521.16;;;17.82;100.00
19520;BME280;9904;52.246;20.898;2023-09-19T09:50:32;99522.91;;;17.69;100.00
19520;BME280;9904;52.246;20.898;2023-09-19T09:53:28;99521.41;;;17.73;100.00
19520;BME280;9904;52.246;20.898;2023-09-19T09:56:05;99524.53;;;17.84;100.00
19520;BME280;9904;52.246;20.898;2023-09-19T09:58:37;99528.97;;;17.78;100.00
19520;BME280;9904;52.246;20.898;2023-09-19T10:01:04;99522.38;;;17.93;100.00
19520;BME280;9904;52.246;20.898;2023-09-19T10:03:43;99522.84;;;17.83;100.00
19520;BME280;9904;52.246;20.898;2023-09-19T10:06:16;99522.13;;;17.94;100.00
19520;BME280;9904;52.246;20.898;2023-09-19T10:09:03;99515.66;;;17.88;100.00
19520;BME280;9904;52.246;20.898;2023-09-19T10:11:33;99517.31;;;17.96;100.00
19520;BME280;9904;52.246;20.898;2023-09-19T10:14:04;99519.00;;;17.97;100.00
19520;BME280;9904;52.246;20.898;2023-09-19T10:16:34;99521.47;;;18.12;100.00
19520;BME280;9904;52.246;20.898;2023-09-19T10:19:05;99530.09;;;18.16;100.00
19520;BME280;9904;52.246;20.898;2023-09-19T10:21:34;99536.22;;;18.11;100.00
19520;BME280;9904;52.246;20.898;2023-09-19T10:24:03;99531.16;;;18.08;100.00
19520;BME280;9904;52.246;20.898;2023-09-19T10:26:36;99539.16;;;18.10;100.00
19520;BME280;9904;52.246;20.898;2023-09-19T10:29:03;99533.66;;;18.10;100.00
19520;BME280;9904;52.246;20.898;2023-09-19T10:31:36;99525.84;;;18.20;100.00
19520;BME280;9904;52.246;20.898;2023-09-19T10:34:08;99527.56;;;18.46;100.00
19520;BME280;9904;52.246;20.898;2023-09-19T10:36:36;99525.88;;;18.71;100.00
19520;BME280;9904;52.246;20.898;2023-09-19T10:39:05;99527.44;;;18.92;100.00
19520;BME280;9904;52.246;20.898;2023-09-19T10:41:34;99532.94;;;18.85;100.00
19520;BME280;9904;52.246;20.898;2023-09-19T10:44:03;99533.13;;;18.65;100.00
19520;BME280;9904;52.246;20.898;2023-09-19T10:46:32;99532.38;;;18.51;100.00
19520;BME280;9904;52.246;20.898;2023-09-19T10:49:01;99533.50;;;18.68;100.00
19520;BME280;9904;52.246;20.898;2023-09-19T10:51:39;99533.41;;;18.82;100.00
19520;BME280;9904;52.246;20.898;2023-09-19T10:54:12;99532.53;;;18.56;100.00
19520;BME280;9904;52.246;20.898;2023-09-19T10:56:46;99535.53;;;18.48;100.00
19520;BME280;9904;52.246;20.898;2023-09-19T10:59:17;99543.00;;;18.66;100.00
19520;BME280;9904;52.246;20.898;2023-09-19T11:01:55;99545.66;;;18.54;100.00
19520;BME280;9904;52.246;20.898;2023-09-19T11:04:34;99551.31;;;18.52;100.00
19520;BME280;9904;52.246;20.898;2023-09-19T11:07:10;99545.75;;;18.66;100.00
19520;BME280;9904;52.246;20.898;2023-09-19T11:09:51;99545.06;;;18.71;100.00
19520;BME280;9904;52.246;20.898;2023-09-19T11:14:58;99545.75;;;18.66;100.00
19520;BME280;9904;52.246;20.898;2023-09-19T11:17:38;99551.88;;;18.93;100.00
19520;BME280;9904;52.246;20.898;2023-09-19T11:30:52;99532.78;;;18.80;98.01
19520;BME280;9904;52.246;20.898;2023-09-19T11:33:30;99543.31;;;19.08;97.62
19520;BME280;9904;52.246;20.898;2023-09-19T11:36:07;99546.06;;;19.08;97.65
19520;BME280;9904;52.246;20.898;2023-09-19T11:46:30;99547.06;;;19.14;96.53
19520;BME280;9904;52.246;20.898;2023-09-19T11:49:08;99550.59;;;18.96;96.78
19520;BME280;9904;52.246;20.898;2023-09-19T11:51:43;99554.84;;;18.92;96.75
19520;BME280;9904;52.246;20.898;2023-09-19T11:54:14;99558.00;;;18.89;97.12
19520;BME280;9904;52.246;20.898;2023-09-19T11:56:45;99558.22;;;18.94;96.42
19520;BME280;9904;52.246;20.898;2023-09-19T11:59:22;99557.09;;;19.02;96.22
19520;BME280;9904;52.246;20.898;2023-09-19T12:02:05;99556.53;;;18.93;96.18
19520;BME280;9904;52.246;20.898;2023-09-19T12:04:34;99566.94;;;18.84;97.98
19520;BME280;9904;52.246;20.898;2023-09-19T12:07:11;99564.19;;;18.84;98.02
19520;BME280;9904;52.246;20.898;2023-09-19T12:09:47;99557.03;;;18.83;97.38
19520;BME280;9904;52.246;20.898;2023-09-19T12:12:25;99565.59;;;18.93;96.97
19520;BME280;9904;52.246;20.898;2023-09-19T12:14:54;99567.53;;;19.11;97.13
19520;BME280;9904;52.246;20.898;2023-09-19T12:17:24;99571.16;;;19.12;95.71
19520;BME280;9904;52.246;20.898;2023-09-19T12:19:51;99571.31;;;19.17;96.44
19520;BME280;9904;52.246;20.898;2023-09-19T12:22:19;99577.94;;;19.28;95.87
19520;BME280;9904;52.246;20.898;2023-09-19T12:24:47;99579.28;;;19.19;94.96
19520;BME280;9904;52.246;20.898;2023-09-19T12:27:15;99583.63;;;19.08;95.78
19520;BME280;9904;52.246;20.898;2023-09-19T12:32:10;99579.66;;;19.04;96.81
19520;BME280;9904;52.246;20.898;2023-09-19T12:34:37;99574.41;;;19.02;96.24
19520;BME280;9904;52.246;20.898;2023-09-19T12:37:13;99579.94;;;18.95;96.63
19520;BME280;9904;52.246;20.898;2023-09-19T12:40:03;99580.72;;;19.03;96.84
19520;BME280;9904;52.246;20.898;2023-09-19T12:42:41;99579.13;;;19.13;95.85
19520;BME280;9904;52.246;20.898;2023-09-19T12:45:09;99583.91;;;19.25;95.36
19520;BME280;9904;52.246;20.898;2023-09-19T12:47:36;99582.44;;;19.22;95.08
19520;BME280;9904;52.246;20.898;2023-09-19T12:52:41;99591.84;;;19.33;94.54
19520;BME280;9904;52.246;20.898;2023-09-19T12:55:28;99579.41;;;19.30;94.87
19520;BME280;9904;52.246;20.898;2023-09-19T13:00:40;99583.56;;;19.14;95.12
19520;BME280;9904;52.246;20.898;2023-09-19T13:03:18;99574.31;;;19.09;96.68
19520;BME280;9904;52.246;20.898;2023-09-19T13:05:59;99576.00;;;19.10;96.23
19520;BME280;9904;52.246;20.898;2023-09-19T13:08:34;99578.38;;;19.06;96.41
19520;BME280;9904;52.246;20.898;2023-09-19T13:11:08;99574.31;;;19.09;96.77
19520;BME280;9904;52.246;20.898;2023-09-19T13:13:42;99582.34;;;19.10;96.47
19520;BME280;9904;52.246;20.898;2023-09-19T13:16:17;99573.81;;;19.19;96.08
19520;BME280;9904;52.246;20.898;2023-09-19T13:18:52;99580.25;;;19.31;96.29
19520;BME280;9904;52.246;20.898;2023-09-19T13:21:30;99575.31;;;19.40;96.18
19520;BME280;9904;52.246;20.898;2023-09-19T13:24:21;99584.53;;;19.45;95.55
19520;BME280;9904;52.246;20.898;2023-09-19T13:26:47;99582.78;;;19.51;95.60
19520;BME280;9904;52.246;20.898;2023-09-19T13:29:15;99588.97;;;19.65;94.97
19520;BME280;9904;52.246;20.898;2023-09-19T13:31:51;99593.00;;;19.62;95.17
19520;BME280;9904;52.246;20.898;2023-09-19T13:34:21;99589.81;;;19.66;94.39
19520;BME280;9904;52.246;20.898;2023-09-19T13:36:48;99588.59;;;19.61;96.21
19520;BME280;9904;52.246;20.898;2023-09-19T13:39:17;99584.91;;;19.68;96.60
19520;BME280;9904;52.246;20.898;2023-09-19T13:41:44;99594.06;;;19.61;96.60
19520;BME280;9904;52.246;20.898;2023-09-19T13:44:13;99596.13;;;19.66;96.66
19520;BME280;9904;52.246;20.898;2023-09-19T13:46:40;99595.00;;;19.74;96.71
19520;BME280;9904;52.246;20.898;2023-09-19T13:49:10;99598.13;;;19.77;96.06
19520;BME280;9904;52.246;20.898;2023-09-19T13:51:37;99593.63;;;19.83;95.88
19520;BME280;9904;52.246;20.898;2023-09-19T13:54:04;99586.41;;;19.89;95.08
19520;BME280;9904;52.246;20.898;2023-09-19T13:56:31;99588.84;;;19.97;94.82
19520;BME280;9904;52.246;20.898;2023-09-19T13:59:00;99582.28;;;19.98;94.71
19520;BME280;9904;52.246;20.898;2023-09-19T14:01:26;99590.03;;;19.83;93.45
19520;BME280;9904;52.246;20.898;2023-09-19T14:03:53;99591.59;;;19.78;93.82